Time;durP1;ratioP1;P1;durP2;ratioP2;P2;SDS_P1;SDS_P2;PMS_P1;PMS_P2;Temp;Humidity;BMP_temperature;BMP_pressure;BME280_temperature;BME280_humidity;BME280_pressure;Samples;Min_cycle;Max_cycle;Signal;HPM_P1;HPM_P2
2023/09/11 00:01:37;;;;;;;20.60;6.25;;;;;;;14.77;100.00;98545.69;5181025;27;20046;-53
2023/09/11 00:04:03;;;;;;;13.13;4.95;;;;;;;14.75;100.00;98544.53;5180792;27;20106;-56
2023/09/11 00:06:29;;;;;;;11.13;5.10;;;;;;;14.72;100.00;98548.09;5180595;27;20137;-58
2023/09/11 00:08:58;;;;;;;12.02;4.68;;;;;;;14.69;100.00;98548.91;5180644;27;20379;-56
2023/09/11 00:11:24;;;;;;;10.98;4.68;;;;;;;14.67;100.00;98543.81;5180548;27;20060;-54
2023/09/11 00:13:49;;;;;;;18.65;6.10;;;;;;;14.70;100.00;98539.47;5180717;27;20050;-53
2023/09/11 00:16:15;;;;;;;11.90;4.55;;;;;;;14.67;100.00;98532.00;5180368;27;20132;-55
2023/09/11 00:18:41;;;;;;;9.48;4.65;;;;;;;14.69;100.00;98526.84;5180531;27;20540;-56
2023/09/11 00:21:07;;;;;;;12.73;3.97;;;;;;;14.66;100.00;98524.88;5180312;27;20088;-59
2023/09/11 00:23:33;;;;;;;12.70;4.55;;;;;;;14.68;100.00;98519.75;5180548;27;20057;-58
2023/09/11 00:26:00;;;;;;;13.70;4.88;;;;;;;14.65;100.00;98526.88;5180081;27;20150;-57
2023/09/11 00:28:25;;;;;;;9.25;4.35;;;;;;;14.65;100.00;98534.38;5180595;27;20060;-58
2023/09/11 00:30:51;;;;;;;18.02;4.90;;;;;;;14.59;100.00;98550.56;5179948;27;20046;-59
2023/09/11 00:33:17;;;;;;;12.77;5.30;;;;;;;14.54;100.00;98562.03;5180230;27;20131;-58
2023/09/11 00:35:44;;;;;;;17.10;5.20;;;;;;;14.53;100.00;98580.56;5180285;27;20146;-57
2023/09/11 00:38:10;;;;;;;12.45;5.13;;;;;;;14.51;100.00;98590.44;5179819;27;20046;-59
2023/09/11 00:40:36;;;;;;;16.85;4.95;;;;;;;14.47;100.00;98598.72;5180084;27;20051;-59
2023/09/11 00:43:03;;;;;;;19.05;5.30;;;;;;;14.44;100.00;98596.75;5180027;27;20081;-58
2023/09/11 00:45:29;;;;;;;20.02;5.25;;;;;;;14.41;100.00;98616.88;5180044;27;20050;-56
2023/09/11 00:47:55;;;;;;;10.82;4.90;;;;;;;14.37;100.00;98596.81;5179792;27;20141;-56
2023/09/11 00:50:23;;;;;;;8.73;4.95;;;;;;;14.38;100.00;98609.41;5180051;27;20054;-58
2023/09/11 00:52:50;;;;;;;12.13;4.20;;;;;;;14.35;100.00;98618.47;5179662;27;20050;-60
2023/09/11 00:55:17;;;;;;;12.52;4.15;;;;;;;14.30;100.00;98627.97;5179606;27;20054;-56
2023/09/11 00:57:43;;;;;;;12.85;4.15;;;;;;;14.26;100.00;98632.72;5179649;27;20045;-57
2023/09/11 01:00:12;;;;;;;8.40;4.55;;;;;;;14.26;100.00;98637.44;5179613;27;20308;-56
2023/09/11 01:02:38;;;;;;;11.15;4.00;;;;;;;14.22;100.00;98639.41;5178935;27;20058;-57
2023/09/11 01:05:07;;;;;;;7.93;4.45;;;;;;;14.15;100.00;98661.50;5179621;27;20054;-57
2023/09/11 01:07:33;;;;;;;9.75;4.50;;;;;;;14.10;100.00;98684.78;5179691;27;20057;-56
2023/09/11 01:09:59;;;;;;;8.77;4.20;;;;;;;14.02;100.00;98706.06;5179510;27;20082;-53
2023/09/11 01:12:25;;;;;;;10.93;4.45;;;;;;;13.98;100.00;98715.53;5179779;27;20041;-57
2023/09/11 01:14:51;;;;;;;16.85;4.82;;;;;;;13.89;100.00;98716.75;5179433;27;20042;-56
2023/09/11 01:17:27;;;;;;;18.67;5.72;;;;;;;13.88;100.00;98755.69;5179744;27;20085;-57
2023/09/11 01:20:14;;;;;;;11.40;4.55;;;;;;;13.87;100.00;98793.50;5179331;27;20042;-59
2023/09/11 01:23:01;;;;;;;11.00;4.30;;;;;;;13.81;100.00;98792.31;5179385;27;20167;-58
2023/09/11 01:25:55;;;;;;;9.13;4.07;;;;;;;13.74;100.00;98822.63;5179601;27;20133;-59
2023/09/11 01:28:42;;;;;;;9.35;3.67;;;;;;;13.76;100.00;98813.97;5179222;27;20064;-57
2023/09/11 01:31:10;;;;;;;8.48;3.97;;;;;;;13.69;100.00;98789.97;5179584;27;20042;-58
2023/09/11 01:33:36;;;;;;;21.33;4.65;;;;;;;13.65;100.00;98786.44;5179048;27;20047;-60
2023/09/11 01:36:02;;;;;;;9.88;3.97;;;;;;;13.54;100.00;98775.41;5179461;27;20417;-58
2023/09/11 01:38:28;;;;;;;12.27;4.10;;;;;;;13.60;100.00;98768.34;5178891;27;20050;-58
2023/09/11 01:40:59;;;;;;;9.48;4.20;;;;;;;13.62;100.00;98754.94;5179231;27;20050;-59
2023/09/11 01:43:29;;;;;;;5.15;3.95;;;;;;;13.59;100.00;98788.78;5179240;27;20046;-57
2023/09/11 01:45:55;;;;;;;7.63;4.00;;;;;;;13.50;100.00;98815.94;5179040;27;20050;-55
2023/09/11 01:48:22;;;;;;;5.28;3.35;;;;;;;13.46;100.00;98856.44;5179116;27;20050;-53
2023/09/11 01:50:49;;;;;;;6.95;3.78;;;;;;;13.44;100.00;98913.09;5179189;27;20190;-57
2023/09/11 01:53:15;;;;;;;7.05;4.13;;;;;;;13.38;100.00;98926.47;5179195;27;20133;-55
2023/09/11 01:55:41;;;;;;;8.30;3.85;;;;;;;13.30;100.00;98963.41;5178856;27;20141;-58
2023/09/11 01:58:07;;;;;;;7.88;3.60;;;;;;;13.30;100.00;98988.19;5179148;27;20054;-53
2023/09/11 02:00:33;;;;;;;12.50;4.30;;;;;;;13.22;100.00;99008.56;5178749;27;20092;-54
2023/09/11 02:03:01;;;;;;;7.40;4.05;;;;;;;13.19;100.00;99038.47;5179159;27;20361;-57
2023/09/11 02:05:28;;;;;;;6.40;4.20;;;;;;;13.17;100.00;99035.28;5178923;27;20106;-56
2023/09/11 02:07:54;;;;;;;6.63;3.75;;;;;;;13.13;100.00;99037.25;5178391;27;20396;-57
2023/09/11 02:10:19;;;;;;;7.85;4.10;;;;;;;13.11;100.00;99036.81;5178980;27;20054;-56
2023/09/11 02:12:46;;;;;;;8.88;3.95;;;;;;;13.08;100.00;99053.31;5178486;27;20057;-56
2023/09/11 02:15:12;;;;;;;10.25;3.80;;;;;;;13.01;100.00;99073.34;5181149;27;20046;-59
2023/09/11 02:17:38;;;;;;;8.85;3.90;;;;;;;13.02;100.00;99072.16;5182420;27;20082;-59
2023/09/11 02:20:05;;;;;;;7.03;3.50;;;;;;;12.94;100.00;99104.34;5182593;27;20106;-58
2023/09/11 02:22:31;;;;;;;6.70;4.40;;;;;;;12.91;100.00;99113.34;5182232;27;20141;-53
2023/09/11 02:24:57;;;;;;;12.77;4.10;;;;;;;12.88;100.00;99132.59;5182544;27;20042;-54
2023/09/11 02:27:23;;;;;;;7.97;4.03;;;;;;;12.85;100.00;99147.88;5182360;27;20137;-53
2023/09/11 02:29:49;;;;;;;11.25;4.10;;;;;;;12.83;100.00;99152.19;5181917;27;20356;-53
2023/09/11 02:32:15;;;;;;;10.63;4.50;;;;;;;12.78;100.00;99180.06;5182018;27;20050;-58
2023/09/11 02:34:41;;;;;;;6.78;4.40;;;;;;;12.78;100.00;99153.34;5182227;27;20145;-57
2023/09/11 02:37:07;;;;;;;8.65;4.18;;;;;;;12.80;100.00;99166.72;5181936;27;20054;-54
2023/09/11 02:39:33;;;;;;;9.10;4.65;;;;;;;12.77;100.00;99181.25;5182054;27;20098;-54
2023/09/11 02:41:59;;;;;;;9.30;3.90;;;;;;;12.76;100.00;99210.69;5182177;27;20327;-54
2023/09/11 02:44:25;;;;;;;11.50;4.05;;;;;;;12.69;100.00;99210.63;5181934;27;20078;-53
2023/09/11 02:46:51;;;;;;;16.52;4.22;;;;;;;12.70;100.00;99210.25;5182001;27;20110;-55
2023/09/11 02:49:18;;;;;;;10.38;4.30;;;;;;;12.68;100.00;99211.78;5181854;27;20308;-57
2023/09/11 02:51:44;;;;;;;5.78;3.95;;;;;;;12.65;100.00;99191.31;5181953;27;20093;-56
2023/09/11 02:54:09;;;;;;;10.68;4.47;;;;;;;12.50;100.00;99186.88;5181754;27;20099;-55
2023/09/11 02:56:38;;;;;;;8.75;4.10;;;;;;;12.43;100.00;99214.28;5182084;27;20046;-58
2023/09/11 02:59:03;;;;;;;5.20;4.07;;;;;;;12.64;100.00;99211.75;5181572;27;20098;-52
2023/09/11 03:01:29;;;;;;;11.13;4.40;;;;;;;12.61;100.00;99198.75;5182096;27;20050;-57
2023/09/11 03:03:55;;;;;;;7.53;3.75;;;;;;;12.60;100.00;99188.16;5181778;27;20412;-56
2023/09/11 03:06:21;;;;;;;12.35;4.82;;;;;;;12.54;100.00;99220.69;5181718;27;21130;-58
2023/09/11 03:08:47;;;;;;;7.70;4.55;;;;;;;12.47;100.00;99226.13;5181600;27;20058;-58
2023/09/11 03:11:13;;;;;;;9.35;4.18;;;;;;;12.53;100.00;99219.13;5181566;27;20103;-55
2023/09/11 03:13:40;;;;;;;8.23;4.32;;;;;;;12.44;100.00;99237.88;5181675;27;20051;-56
2023/09/11 03:16:07;;;;;;;9.52;4.68;;;;;;;12.46;100.00;99263.81;5181471;27;20061;-56
2023/09/11 03:18:33;;;;;;;9.02;3.83;;;;;;;12.41;100.00;99275.13;5181498;27;20327;-57
2023/09/11 03:20:59;;;;;;;12.95;4.60;;;;;;;12.43;100.00;99277.53;5181276;27;20099;-56
2023/09/11 03:23:25;;;;;;;12.65;4.28;;;;;;;12.42;100.00;99278.69;5181583;27;20082;-57
2023/09/11 03:25:51;;;;;;;11.15;4.95;;;;;;;12.41;100.00;99288.88;5180193;27;20082;-58
2023/09/11 03:28:17;;;;;;;6.43;4.35;;;;;;;12.40;100.00;99286.53;5181561;27;20407;-57
2023/09/11 03:30:43;;;;;;;11.70;4.32;;;;;;;12.40;100.00;99273.56;5181192;27;20089;-58
2023/09/11 03:33:09;;;;;;;10.20;4.15;;;;;;;12.38;100.00;99283.34;5181470;27;20382;-59
2023/09/11 03:35:35;;;;;;;12.77;5.50;;;;;;;12.38;100.00;99294.34;5181284;27;20047;-57
2023/09/11 03:38:01;;;;;;;14.52;4.07;;;;;;;12.35;100.00;99297.84;5181037;27;20136;-56
2023/09/11 03:40:29;;;;;;;11.88;4.85;;;;;;;12.37;100.00;99315.56;5181249;27;20062;-55
2023/09/11 03:42:55;;;;;;;7.45;4.03;;;;;;;12.35;100.00;99323.38;5180997;27;20042;-54
2023/09/11 03:45:21;;;;;;;7.82;4.15;;;;;;;12.36;100.00;99335.97;5181161;27;20400;-56
2023/09/11 03:47:47;;;;;;;12.38;3.92;;;;;;;12.38;100.00;99338.34;5180826;27;20320;-55
2023/09/11 03:50:13;;;;;;;10.63;4.95;;;;;;;12.39;100.00;99346.19;5181255;27;20377;-57
2023/09/11 03:52:39;;;;;;;13.57;4.30;;;;;;;12.39;100.00;99359.16;5180802;27;20054;-56
2023/09/11 03:55:06;;;;;;;14.27;4.53;;;;;;;12.42;100.00;99339.94;5181046;27;20536;-56
2023/09/11 03:57:31;;;;;;;8.73;4.25;;;;;;;12.35;100.00;99330.81;5180512;27;20101;-58
2023/09/11 03:59:57;;;;;;;7.28;4.15;;;;;;;12.48;100.00;99305.47;5181062;27;20145;-58
2023/09/11 04:02:23;;;;;;;13.18;4.70;;;;;;;12.41;100.00;99277.88;5180715;27;20046;-58
2023/09/11 04:04:50;;;;;;;15.02;4.68;;;;;;;12.49;100.00;99295.25;5180703;27;20133;-57
2023/09/11 04:07:16;;;;;;;9.77;4.50;;;;;;;12.56;100.00;99267.88;5180689;27;20046;-59
2023/09/11 04:09:42;;;;;;;9.90;4.95;;;;;;;12.67;100.00;99254.22;5180288;27;20132;-57
2023/09/11 04:12:08;;;;;;;14.18;4.72;;;;;;;12.69;100.00;99230.69;5180535;27;20042;-58
2023/09/11 04:14:37;;;;;;;19.15;5.45;;;;;;;12.74;100.00;99184.75;5180462;27;20050;-57
2023/09/11 04:17:03;;;;;;;11.27;4.28;;;;;;;12.87;100.00;99139.28;5180510;27;20491;-55
2023/09/11 04:19:29;;;;;;;14.48;4.95;;;;;;;13.11;100.00;99091.09;5180289;27;20129;-58
2023/09/11 04:21:56;;;;;;;12.10;4.53;;;;;;;13.33;100.00;99014.97;5180609;27;20156;-53
2023/09/11 04:24:22;;;;;;;9.55;4.55;;;;;;;13.53;100.00;98896.97;5180171;27;20153;-55
2023/09/11 04:26:47;;;;;;;10.35;3.78;;;;;;;13.85;100.00;98789.56;5180426;27;20046;-55
2023/09/11 04:29:14;;;;;;;11.00;4.35;;;;;;;14.03;100.00;98696.63;5180118;27;20089;-52
2023/09/11 04:31:39;;;;;;;10.93;5.25;;;;;;;14.04;100.00;98617.47;5180392;27;20109;-59
2023/09/11 04:34:05;;;;;;;10.15;4.65;;;;;;;14.19;100.00;98558.31;5180007;27;20050;-57
2023/09/11 04:36:31;;;;;;;10.55;4.57;;;;;;;14.34;100.00;98490.84;5180111;27;20053;-58
2023/09/11 04:38:58;;;;;;;12.82;4.68;;;;;;;14.53;100.00;98430.84;5179790;27;20056;-59
2023/09/11 04:41:24;;;;;;;9.45;5.05;;;;;;;14.76;100.00;98400.66;5180010;27;20133;-57
2023/09/11 04:43:50;;;;;;;21.50;5.35;;;;;;;15.06;100.00;98380.59;5180203;27;20052;-59
2023/09/11 04:46:16;;;;;;;16.13;4.47;;;;;;;15.29;100.00;98376.31;5179580;27;20074;-57
2023/09/11 04:48:42;;;;;;;13.75;4.95;;;;;;;15.43;100.00;98392.72;5179941;27;20050;-58
2023/09/11 04:51:08;;;;;;;11.23;4.50;;;;;;;15.64;100.00;98399.91;5179502;27;20472;-57
2023/09/11 04:53:34;;;;;;;10.00;4.90;;;;;;;16.03;100.00;98430.91;5179858;27;20117;-58
2023/09/11 04:56:00;;;;;;;14.75;4.72;;;;;;;16.48;100.00;98492.22;5179463;27;20046;-54
2023/09/11 04:58:26;;;;;;;13.80;4.63;;;;;;;16.68;100.00;98515.19;5180022;27;20077;-57
2023/09/11 05:00:52;;;;;;;18.63;5.20;;;;;;;16.90;100.00;98554.41;5179197;27;20300;-54
2023/09/11 05:03:18;;;;;;;16.63;7.13;;;;;;;17.10;100.00;98592.44;5179684;27;20050;-53
2023/09/11 05:05:44;;;;;;;12.07;6.88;;;;;;;17.11;100.00;98599.53;5179656;27;20050;-55
2023/09/11 05:08:10;;;;;;;12.95;4.75;;;;;;;17.22;100.00;98636.13;5179430;27;20136;-52
2023/09/11 05:10:40;;;;;;;19.00;8.45;;;;;;;17.18;100.00;98629.88;5179390;27;20383;-56
2023/09/11 05:13:07;;;;;;;19.63;5.70;;;;;;;17.50;100.00;98664.53;5179244;27;20050;-60
2023/09/11 05:15:33;;;;;;;8.60;4.22;;;;;;;18.03;100.00;98701.59;5179727;27;20042;-55
2023/09/11 05:17:59;;;;;;;8.95;4.15;;;;;;;18.14;100.00;98727.13;5179349;27;20442;-51
2023/09/11 05:20:25;;;;;;;13.10;4.45;;;;;;;18.16;100.00;98755.25;5179693;27;20102;-51
2023/09/11 05:22:51;;;;;;;12.93;6.70;;;;;;;18.18;100.00;98729.81;5179186;27;20047;-54
2023/09/11 05:25:17;;;;;;;12.60;4.25;;;;;;;18.17;100.00;98759.56;5179573;27;20056;-56
2023/09/11 05:27:44;;;;;;;7.35;4.50;;;;;;;18.33;100.00;98781.06;5179582;27;20046;-57
2023/09/11 05:30:12;;;;;;;10.43;4.47;;;;;;;18.77;100.00;98815.88;5179433;27;20118;-52
2023/09/11 05:32:37;;;;;;;15.45;6.60;;;;;;;19.48;100.00;98868.31;5178882;27;20459;-55
2023/09/11 05:35:04;;;;;;;11.95;5.47;;;;;;;19.59;100.00;98885.53;5179109;27;20057;-55
2023/09/11 05:37:30;;;;;;;19.80;6.03;;;;;;;19.71;100.00;98903.56;5178960;27;20046;-53
2023/09/11 05:39:56;;;;;;;18.95;5.65;;;;;;;20.13;100.00;98926.81;5178712;27;20065;-54
2023/09/11 05:42:22;;;;;;;12.25;5.40;;;;;;;20.64;100.00;98952.19;5179303;27;20141;-57
2023/09/11 05:44:48;;;;;;;12.40;5.38;;;;;;;20.93;100.00;98979.28;5179126;27;20055;-57
2023/09/11 05:47:15;;;;;;;12.45;5.25;;;;;;;21.08;100.00;98982.44;5179127;27;20427;-56
2023/09/11 05:49:41;;;;;;;16.77;5.65;;;;;;;21.25;100.00;98991.53;5178500;27;20203;-54
2023/09/11 05:52:07;;;;;;;16.63;6.45;;;;;;;21.46;100.00;99009.69;5179152;27;20046;-54
2023/09/11 05:54:34;;;;;;;16.23;6.30;;;;;;;21.82;100.00;99023.38;5178743;27;20108;-57
2023/09/11 05:56:59;;;;;;;20.17;6.50;;;;;;;21.97;100.00;99027.28;5179022;27;20046;-55
2023/09/11 05:59:25;;;;;;;12.57;6.30;;;;;;;22.42;100.00;99039.47;5178602;27;20050;-58
2023/09/11 06:01:51;;;;;;;17.92;6.10;;;;;;;22.63;100.00;99049.97;5178439;27;20062;-57
2023/09/11 06:04:18;;;;;;;14.73;6.28;;;;;;;23.16;100.00;99044.59;5178921;27;20085;-57
2023/09/11 06:06:44;;;;;;;20.17;9.02;;;;;;;23.60;100.00;99055.81;5178637;27;20050;-58
2023/09/11 06:09:10;;;;;;;21.40;6.70;;;;;;;23.60;100.00;99069.00;5178566;27;20162;-56
2023/09/11 06:11:36;;;;;;;18.23;7.20;;;;;;;23.73;100.00;99063.38;5178543;27;20420;-56
2023/09/11 06:14:02;;;;;;;20.60;6.13;;;;;;;23.80;100.00;99054.72;5178840;27;20042;-54
2023/09/11 06:16:29;;;;;;;18.10;6.45;;;;;;;23.91;100.00;99061.44;5178644;27;20132;-56
2023/09/11 06:18:55;;;;;;;19.40;6.20;;;;;;;23.95;100.00;99055.72;5178877;27;20312;-53
2023/09/11 06:21:21;;;;;;;20.80;9.35;;;;;;;24.45;98.64;99055.78;5178437;27;20057;-55
2023/09/11 06:23:47;;;;;;;28.88;7.82;;;;;;;24.38;91.57;99059.63;5178642;27;20130;-53
2023/09/11 06:26:13;;;;;;;21.02;7.10;;;;;;;24.96;86.45;99058.88;5177972;27;20050;-52
2023/09/11 06:28:39;;;;;;;23.88;6.45;;;;;;;24.66;86.83;99060.53;5178440;27;20110;-51
2023/09/11 06:31:05;;;;;;;20.02;6.70;;;;;;;25.17;83.70;99070.47;5178269;27;20153;-54
2023/09/11 06:33:31;;;;;;;22.23;6.93;;;;;;;25.78;81.40;99066.50;5178239;27;20143;-56
2023/09/11 06:35:57;;;;;;;22.63;9.30;;;;;;;26.09;79.31;99070.34;5178326;27;20396;-57
2023/09/11 06:38:23;;;;;;;23.98;10.45;;;;;;;25.49;77.38;99077.44;5177949;27;20438;-58
2023/09/11 06:40:49;;;;;;;19.63;8.90;;;;;;;26.07;75.15;99076.44;5178327;27;20081;-59
2023/09/11 06:43:15;;;;;;;27.45;9.30;;;;;;;26.63;73.78;99072.19;5178132;27;20129;-54
2023/09/11 06:45:41;;;;;;;25.63;9.10;;;;;;;25.90;75.09;99078.84;5178421;27;20367;-55
2023/09/11 06:48:10;;;;;;;19.95;9.45;;;;;;;26.73;74.00;99075.72;5178025;27;20403;-53
2023/09/11 06:50:36;;;;;;;26.77;9.57;;;;;;;26.27;76.27;99070.28;5178355;27;20141;-57
2023/09/11 06:53:02;;;;;;;28.33;9.73;;;;;;;26.00;79.26;99069.13;5177925;27;20138;-60
2023/09/11 06:55:28;;;;;;;22.38;8.40;;;;;;;26.08;77.48;99080.81;5177466;27;20111;-60
2023/09/11 06:57:55;;;;;;;24.83;9.25;;;;;;;25.58;79.30;99069.81;5177895;27;20137;-59
2023/09/11 07:00:21;;;;;;;18.92;6.38;;;;;;;25.78;79.94;99074.13;5177924;27;20046;-55
2023/09/11 07:02:48;;;;;;;27.17;6.90;;;;;;;25.31;85.45;99078.25;5180708;27;20113;-58
2023/09/11 07:05:14;;;;;;;15.80;6.95;;;;;;;25.98;81.82;99077.25;5181401;27;20202;-55
2023/09/11 07:07:40;;;;;;;24.13;11.10;;;;;;;25.87;79.17;99074.16;5181170;27;20327;-54
2023/09/11 07:10:09;;;;;;;27.90;10.60;;;;;;;26.37;77.11;99080.22;5181128;27;20056;-53
2023/09/11 07:12:35;;;;;;;24.35;9.82;;;;;;;26.31;80.69;99072.94;5181298;27;20054;-57
2023/09/11 07:15:01;;;;;;;20.17;8.43;;;;;;;26.60;76.90;99078.75;5181051;27;20050;-55
2023/09/11 07:17:27;;;;;;;26.52;9.10;;;;;;;26.93;73.55;99078.72;5181646;27;20142;-56
2023/09/11 07:19:53;;;;;;;22.73;8.35;;;;;;;26.55;74.83;99070.19;5180880;27;20399;-58
2023/09/11 07:22:19;;;;;;;26.48;8.23;;;;;;;26.84;73.79;99075.94;5181612;27;20100;-58
2023/09/11 07:24:45;;;;;;;23.92;7.70;;;;;;;27.09;71.54;99079.53;5180913;27;20042;-55
2023/09/11 07:27:11;;;;;;;25.15;7.85;;;;;;;27.74;69.81;99083.38;5181104;27;20106;-56
2023/09/11 07:29:37;;;;;;;25.27;8.82;;;;;;;27.78;71.35;99072.72;5181337;27;20077;-54
2023/09/11 07:32:04;;;;;;;26.73;8.82;;;;;;;28.23;67.06;99075.53;5180853;27;20056;-58
2023/09/11 07:34:30;;;;;;;27.45;8.43;;;;;;;28.36;65.74;99081.63;5180627;27;20081;-58
2023/09/11 07:36:57;;;;;;;23.83;9.75;;;;;;;28.69;65.85;99083.41;5180576;27;20137;-56
2023/09/11 07:39:23;;;;;;;18.70;7.82;;;;;;;28.36;64.19;99087.28;5180861;27;20046;-53
2023/09/11 07:41:48;;;;;;;14.35;7.32;;;;;;;28.55;64.41;99079.38;5180763;27;20046;-54
2023/09/11 07:44:14;;;;;;;21.55;7.75;;;;;;;29.06;63.13;99086.53;5181210;27;20394;-57
2023/09/11 07:46:41;;;;;;;18.42;7.38;;;;;;;27.95;65.46;99075.84;5180518;27;20057;-57
2023/09/11 07:49:07;;;;;;;24.35;7.80;;;;;;;28.40;63.72;99081.47;5180952;27;20140;-57
2023/09/11 07:51:33;;;;;;;18.65;7.65;;;;;;;27.90;65.80;99085.75;5180566;27;20113;-59
2023/09/11 07:53:59;;;;;;;17.55;6.82;;;;;;;28.08;65.60;99079.13;5180896;27;20050;-60
2023/09/11 07:56:26;;;;;;;17.02;7.00;;;;;;;28.06;65.41;99076.03;5180067;27;20110;-52
2023/09/11 07:58:52;;;;;;;16.67;5.30;;;;;;;28.05;64.65;99080.09;5180472;27;20054;-55
2023/09/11 08:01:18;;;;;;;9.05;4.50;;;;;;;28.87;62.74;99088.03;5180622;27;20118;-59
2023/09/11 08:03:45;;;;;;;15.07;5.22;;;;;;;29.02;62.88;99081.09;5180214;27;20412;-51
2023/09/11 08:06:11;;;;;;;9.45;3.78;;;;;;;27.45;63.92;99079.25;5180615;27;20101;-59
2023/09/11 08:08:37;;;;;;;7.07;3.78;;;;;;;27.64;65.12;99079.09;5180026;27;20054;-58
2023/09/11 08:11:12;;;;;;;26.13;4.57;;;;;;;28.00;64.33;99077.22;5180417;27;20085;-56
2023/09/11 08:13:38;;;;;;;11.43;3.95;;;;;;;28.08;62.75;99084.75;5179720;27;20133;-58
2023/09/11 08:16:04;;;;;;;12.88;4.00;;;;;;;27.57;64.00;99087.94;5180442;27;20054;-53
2023/09/11 08:18:30;;;;;;;23.73;4.40;;;;;;;28.80;62.34;99086.41;5179885;27;20085;-51
2023/09/11 08:20:57;;;;;;;14.10;4.60;;;;;;;29.02;61.67;99086.75;5180425;27;20129;-55
2023/09/11 08:23:23;;;;;;;10.40;4.55;;;;;;;29.62;61.59;99081.53;5179708;27;20133;-55
2023/09/11 08:25:49;;;;;;;15.43;4.82;;;;;;;29.93;60.52;99080.03;5179994;27;20050;-55
2023/09/11 08:28:14;;;;;;;16.90;6.38;;;;;;;30.20;59.09;99085.19;5179994;27;20081;-55
2023/09/11 08:30:40;;;;;;;18.60;5.43;;;;;;;30.09;59.13;99078.63;5179641;27;20450;-53
2023/09/11 08:33:06;;;;;;;16.77;6.35;;;;;;;30.08;59.15;99077.06;5179564;27;20042;-58
2023/09/11 08:35:33;;;;;;;17.50;6.65;;;;;;;30.30;57.67;99079.34;5179921;27;20081;-60
2023/09/11 08:37:59;;;;;;;17.25;4.88;;;;;;;29.52;60.00;99082.94;5179849;27;20054;-55
2023/09/11 08:40:30;;;;;;;15.00;4.50;;;;;;;30.27;57.35;99083.94;5179896;27;20057;-55
2023/09/11 08:42:56;;;;;;;15.60;4.05;;;;;;;30.27;57.69;99077.53;5180252;27;20042;-57
2023/09/11 08:45:24;;;;;;;11.63;4.50;;;;;;;29.21;57.30;99080.78;5179426;27;20050;-58
2023/09/11 08:47:51;;;;;;;17.95;4.78;;;;;;;30.48;57.24;99084.59;5180006;27;20140;-58
2023/09/11 08:50:19;;;;;;;11.93;4.93;;;;;;;30.60;55.93;99082.63;5179440;27;20441;-55
2023/09/11 08:52:46;;;;;;;13.95;4.93;;;;;;;29.28;58.97;99074.72;5179981;27;20133;-53
2023/09/11 08:55:17;;;;;;;9.95;4.28;;;;;;;30.38;57.16;99072.72;5179387;27;20422;-51
2023/09/11 08:57:44;;;;;;;19.52;5.40;;;;;;;29.65;58.54;99062.81;5178301;27;20452;-57
2023/09/11 09:00:13;;;;;;;19.90;5.75;;;;;;;31.03;57.51;99060.00;5179324;27;20078;-55
2023/09/11 09:02:39;;;;;;;24.27;5.68;;;;;;;30.74;57.22;99061.88;5178894;27;20411;-58
2023/09/11 09:05:06;;;;;;;25.60;5.70;;;;;;;31.26;57.09;99060.84;5167248;27;20137;-53
2023/09/11 09:07:33;;;;;;;18.80;7.18;;;;;;;29.34;59.53;99057.84;5158204;27;20137;-57
2023/09/11 09:09:59;;;;;;;12.98;5.65;;;;;;;30.15;57.89;99054.78;5158252;27;20142;-55
2023/09/11 09:12:26;;;;;;;13.23;5.60;;;;;;;30.40;56.88;99056.03;5158201;27;20129;-55
2023/09/11 09:14:53;;;;;;;18.45;6.90;;;;;;;30.33;58.20;99056.50;5158149;27;20053;-58
2023/09/11 09:17:19;;;;;;;24.10;7.03;;;;;;;29.89;60.40;99063.31;5158162;27;20047;-54
2023/09/11 09:19:45;;;;;;;10.43;5.53;;;;;;;29.37;60.64;99059.69;5158037;27;20138;-56
2023/09/11 09:22:12;;;;;;;12.75;6.20;;;;;;;28.96;63.18;99068.94;5158343;27;20388;-54
2023/09/11 09:24:48;;;;;;;18.92;6.75;;;;;;;29.26;63.93;99049.81;5157288;27;20127;-53
2023/09/11 09:27:14;;;;;;;18.02;6.85;;;;;;;28.70;63.94;99059.59;5158391;27;20084;-54
2023/09/11 09:29:40;;;;;;;23.92;7.80;;;;;;;28.73;64.67;99050.16;5158323;27;20142;-56
2023/09/11 09:32:07;;;;;;;17.25;5.47;;;;;;;28.35;65.15;99049.81;5157997;27;20047;-57
2023/09/11 09:34:35;;;;;;;23.30;8.23;;;;;;;28.37;64.70;99046.53;5158387;27;20051;-57
2023/09/11 09:37:02;;;;;;;15.27;6.03;;;;;;;27.88;64.79;99037.56;5157914;27;20133;-59
2023/09/11 09:39:29;;;;;;;15.50;6.13;;;;;;;28.22;64.22;99032.47;5158256;27;20424;-58
2023/09/11 09:41:57;;;;;;;9.23;5.18;;;;;;;28.22;63.70;99034.50;5158198;27;20058;-56
2023/09/11 09:44:30;;;;;;;13.40;4.75;;;;;;;28.88;63.91;99033.16;5158204;27;20123;-54
2023/09/11 09:46:56;;;;;;;15.93;4.57;;;;;;;28.42;62.68;99040.22;5157865;27;20090;-52
2023/09/11 09:49:22;;;;;;;9.10;3.85;;;;;;;29.69;63.32;99038.72;5157560;27;20456;-53
2023/09/11 09:51:48;;;;;;;11.85;4.07;;;;;;;29.28;61.92;99029.53;5157980;27;20084;-56
2023/09/11 09:54:14;;;;;;;9.77;4.18;;;;;;;29.01;61.94;99023.09;5157755;27;20405;-57
2023/09/11 09:56:40;;;;;;;12.68;4.70;;;;;;;28.96;62.49;99020.94;5157840;27;20051;-54
2023/09/11 09:59:07;;;;;;;13.23;4.90;;;;;;;29.49;62.46;99028.25;5157541;27;20435;-52
2023/09/11 10:01:44;;;;;;;10.02;4.53;;;;;;;29.69;62.17;99018.97;5157951;27;20484;-58
2023/09/11 10:04:15;;;;;;;10.75;3.78;;;;;;;28.20;63.77;99026.56;5157638;27;20046;-55
2023/09/11 10:06:41;;;;;;;10.65;4.47;;;;;;;28.74;63.80;99020.66;5158002;27;20396;-58
2023/09/11 10:09:08;;;;;;;12.75;4.55;;;;;;;29.01;64.03;99017.44;5157118;27;20142;-57
2023/09/11 10:11:35;;;;;;;12.95;4.38;;;;;;;28.77;66.34;99014.03;5157454;27;20051;-55
2023/09/11 10:14:03;;;;;;;8.25;4.03;;;;;;;28.40;68.96;99011.75;5157619;27;20052;-55
2023/09/11 10:16:30;;;;;;;11.10;4.20;;;;;;;28.50;67.23;99010.34;5157438;27;20319;-54
2023/09/11 10:18:58;;;;;;;10.82;4.38;;;;;;;28.70;68.05;99008.81;5157645;27;20473;-57
2023/09/11 10:21:25;;;;;;;11.70;4.50;;;;;;;28.37;69.18;99007.84;5157389;27;20137;-60
2023/09/11 10:23:52;;;;;;;14.73;4.63;;;;;;;27.99;71.49;99005.19;5157509;27;20047;-58
2023/09/11 10:26:22;;;;;;;8.63;3.78;;;;;;;28.14;73.55;99009.53;5157312;27;20468;-57
2023/09/11 10:28:50;;;;;;;7.15;4.05;;;;;;;28.20;73.18;99003.22;5157509;27;20408;-57
2023/09/11 10:31:20;;;;;;;8.70;4.45;;;;;;;27.06;78.12;99007.34;5157072;27;20054;-57
2023/09/11 10:33:50;;;;;;;8.80;3.80;;;;;;;27.16;78.56;99006.81;5157555;27;20435;-52
2023/09/11 10:36:21;;;;;;;9.82;4.00;;;;;;;26.49;81.87;98994.16;5159263;27;20047;-54
2023/09/11 10:38:50;;;;;;;8.13;3.90;;;;;;;26.84;82.24;99002.81;5160850;27;20050;-55
2023/09/11 10:41:17;;;;;;;12.68;4.32;;;;;;;26.35;85.65;98992.03;5161064;27;20434;-58
2023/09/11 10:43:45;;;;;;;13.73;5.40;;;;;;;26.53;84.64;98989.16;5160811;27;20070;-57
2023/09/11 10:46:30;;;;;;;10.80;5.07;;;;;;;26.01;87.44;98983.59;5160693;27;20057;-58
2023/09/11 10:48:59;;;;;;;10.93;4.85;;;;;;;26.30;88.18;98979.41;5160489;27;20065;-56
2023/09/11 10:51:27;;;;;;;10.60;4.13;;;;;;;26.23;89.80;98983.34;5161242;27;20330;-54
2023/09/11 10:53:54;;;;;;;11.40;4.50;;;;;;;26.80;84.79;98979.75;5160473;27;20443;-57
2023/09/11 10:56:20;;;;;;;18.40;5.35;;;;;;;26.19;90.58;98965.09;5160694;27;20054;-55
2023/09/11 10:58:46;;;;;;;7.82;4.32;;;;;;;26.38;91.85;98969.34;5160313;27;20074;-57
2023/09/11 11:01:14;;;;;;;9.13;5.95;;;;;;;26.20;95.08;98967.44;5160435;27;20402;-58
2023/09/11 11:03:41;;;;;;;11.70;4.10;;;;;;;26.61;87.41;98970.66;5160552;27;20143;-52
2023/09/11 11:06:12;;;;;;;11.27;4.50;;;;;;;26.36;90.39;98971.09;5160353;27;20114;-54
2023/09/11 11:08:40;;;;;;;6.63;3.97;;;;;;;25.86;97.39;98959.47;5160484;27;20141;-55
2023/09/11 11:11:18;;;;;;;7.82;4.43;;;;;;;25.47;96.63;98960.06;5160327;27;20046;-58
2023/09/11 11:14:15;;;;;;;7.25;4.20;;;;;;;25.90;100.00;98946.06;5160597;27;20042;-61
2023/09/11 11:16:55;;;;;;;9.50;4.53;;;;;;;25.81;100.00;98944.06;5160178;27;20441;-52
2023/09/11 11:19:25;;;;;;;11.13;5.07;;;;;;;25.48;100.00;98938.38;5159981;27;20467;-56
2023/09/11 11:21:51;;;;;;;7.47;4.30;;;;;;;25.18;100.00;98931.75;5160416;27;20051;-58